Time;durP1;ratioP1;P1;durP2;ratioP2;P2;SDS_P1;SDS_P2;PMS_P1;PMS_P2;Temp;Humidity;BMP_temperature;BMP_pressure;BME280_temperature;BME280_humidity;BME280_pressure;Samples;Min_cycle;Max_cycle;Signal;HPM_P1;HPM_P2
2023/03/04 00:01:28;;;;;;;23.85;17.08;;;;;;;;;;10445653;28;20407;-85
2023/03/04 00:06:30;;;;;;;24.75;16.63;;;;;;;;;;10439608;28;20437;-85
2023/03/04 00:11:33;;;;;;;24.13;16.08;;;;;;;;;;10441314;28;20764;-85
2023/03/04 00:16:35;;;;;;;20.60;15.13;;;;;;;;;;10444069;28;20437;-84
2023/03/04 00:21:37;;;;;;;22.23;14.85;;;;;;;;;;10445750;28;20864;-85
2023/03/04 00:26:40;;;;;;;24.20;15.10;;;;;;;;;;10437448;28;20438;-84
2023/03/04 00:31:42;;;;;;;22.10;14.27;;;;;;;;;;10439177;28;20875;-85
2023/03/04 00:36:44;;;;;;;20.73;12.43;;;;;;;;;;10442005;28;20465;-85
2023/03/04 00:41:47;;;;;;;22.48;13.00;;;;;;;;;;10440387;28;20613;-85
2023/03/04 00:46:49;;;;;;;17.95;12.02;;;;;;;;;;10432171;28;20420;-85
2023/03/04 00:51:51;;;;;;;18.30;12.25;;;;;;;;;;10436437;28;20508;-84
2023/03/04 00:56:54;;;;;;;20.45;13.05;;;;;;;;;;10437518;28;20422;-85
2023/03/04 01:01:56;;;;;;;18.20;12.15;;;;;;;;;;10435022;28;20394;-85
2023/03/04 01:06:58;;;;;;;18.33;13.37;;;;;;;;;;10432755;28;20457;-85
2023/03/04 01:12:02;;;;;;;20.30;12.97;;;;;;;;;;10438977;28;20552;-85
2023/03/04 01:17:04;;;;;;;21.20;13.85;;;;;;;;;;10439289;28;20913;-84
2023/03/04 01:22:06;;;;;;;21.42;14.73;;;;;;;;;;10432411;28;20419;-84
2023/03/04 01:27:09;;;;;;;21.73;14.85;;;;;;;;;;10437637;28;20433;-84
2023/03/04 01:32:11;;;;;;;22.17;14.30;;;;;;;;;;10429537;28;20454;-84
2023/03/04 01:37:13;;;;;;;21.38;12.77;;;;;;;;;;10434772;28;20440;-84
2023/03/04 01:42:18;;;;;;;21.65;13.65;;;;;;;;;;10431104;28;20434;-84
2023/03/04 01:47:22;;;;;;;20.73;13.10;;;;;;;;;;10432329;28;21049;-84
2023/03/04 01:52:26;;;;;;;20.00;12.65;;;;;;;;;;10431047;28;20781;-84
2023/03/04 01:57:35;;;;;;;18.90;12.68;;;;;;;;;;10437999;28;20415;-85
2023/03/04 02:02:37;;;;;;;19.48;12.43;;;;;;;;;;10427467;28;20408;-84
2023/03/04 02:07:38;;;;;;;18.73;12.35;;;;;;;;;;10430208;28;20539;-83
2023/03/04 02:12:42;;;;;;;18.93;11.93;;;;;;;;;;10441308;28;20414;-84
2023/03/04 02:17:44;;;;;;;19.42;11.80;;;;;;;;;;10438135;28;20415;-84
2023/03/04 02:22:53;;;;;;;19.75;11.80;;;;;;;;;;10428181;28;20417;-84
2023/03/04 02:27:57;;;;;;;20.43;12.10;;;;;;;;;;10425202;28;20452;-84
2023/03/04 02:32:59;;;;;;;20.07;12.53;;;;;;;;;;10431883;28;20533;-84
2023/03/04 02:38:01;;;;;;;20.13;12.45;;;;;;;;;;10433548;28;20403;-84
2023/03/04 02:43:04;;;;;;;18.07;11.50;;;;;;;;;;10441451;28;20494;-84
2023/03/04 02:48:07;;;;;;;21.47;12.23;;;;;;;;;;10426091;28;20782;-84
2023/03/04 02:53:09;;;;;;;17.83;11.60;;;;;;;;;;10440069;28;20399;-83
2023/03/04 02:58:13;;;;;;;18.45;12.00;;;;;;;;;;10428111;28;20401;-84
2023/03/04 03:03:14;;;;;;;16.00;11.43;;;;;;;;;;10428767;28;20500;-84
2023/03/04 03:08:16;;;;;;;20.17;12.75;;;;;;;;;;10423359;28;20423;-84
2023/03/04 03:13:19;;;;;;;17.83;11.45;;;;;;;;;;10435527;28;20412;-84
2023/03/04 03:18:21;;;;;;;20.77;11.70;;;;;;;;;;10432689;28;20419;-85
2023/03/04 03:23:23;;;;;;;16.77;11.30;;;;;;;;;;10429577;28;20409;-84
2023/03/04 03:28:26;;;;;;;19.13;11.80;;;;;;;;;;10430115;28;20469;-83
2023/03/04 03:33:28;;;;;;;21.75;11.90;;;;;;;;;;10432538;28;20448;-84
2023/03/04 03:38:30;;;;;;;19.15;11.15;;;;;;;;;;10422683;28;20776;-84
2023/03/04 03:43:33;;;;;;;18.50;11.52;;;;;;;;;;10423764;28;20405;-84
2023/03/04 03:48:35;;;;;;;18.30;11.10;;;;;;;;;;10425564;28;20783;-84
2023/03/04 03:53:37;;;;;;;18.98;11.13;;;;;;;;;;10434835;28;20399;-84
2023/03/04 03:58:40;;;;;;;16.98;9.95;;;;;;;;;;10428432;28;20773;-84
2023/03/04 04:03:42;;;;;;;15.85;10.13;;;;;;;;;;10429024;28;20416;-84
2023/03/04 04:08:43;;;;;;;16.33;10.13;;;;;;;;;;10428439;28;20505;-84
2023/03/04 04:13:47;;;;;;;14.75;9.35;;;;;;;;;;10433032;28;20421;-84
2023/03/04 04:18:49;;;;;;;12.50;8.52;;;;;;;;;;10432303;28;20414;-84
2023/03/04 04:23:51;;;;;;;15.23;9.15;;;;;;;;;;10437160;28;20879;-84
2023/03/04 04:28:54;;;;;;;15.30;9.48;;;;;;;;;;10445769;28;20420;-84
2023/03/04 04:33:56;;;;;;;16.98;9.60;;;;;;;;;;10428926;28;20485;-84
2023/03/04 04:38:57;;;;;;;17.38;9.52;;;;;;;;;;10428340;28;20650;-85
2023/03/04 04:44:01;;;;;;;16.85;9.35;;;;;;;;;;10432889;28;20503;-84
2023/03/04 04:49:04;;;;;;;14.65;8.93;;;;;;;;;;10438773;28;20435;-84
2023/03/04 04:54:06;;;;;;;21.23;10.90;;;;;;;;;;10427179;28;20433;-85
2023/03/04 04:59:09;;;;;;;16.23;9.40;;;;;;;;;;10430491;28;20841;-85
2023/03/04 05:04:11;;;;;;;17.33;10.30;;;;;;;;;;10437892;28;20404;-85
2023/03/04 05:09:13;;;;;;;15.43;9.15;;;;;;;;;;10434704;28;20781;-85
2023/03/04 05:14:17;;;;;;;16.13;9.60;;;;;;;;;;10437531;28;20444;-85
2023/03/04 05:19:19;;;;;;;14.27;9.32;;;;;;;;;;10429330;28;20437;-84
2023/03/04 05:24:21;;;;;;;16.83;9.50;;;;;;;;;;10439552;28;20499;-84
2023/03/04 05:29:24;;;;;;;15.18;9.63;;;;;;;;;;10439818;28;20507;-84
2023/03/04 05:34:26;;;;;;;13.55;9.50;;;;;;;;;;10441213;28;20462;-84
2023/03/04 05:39:28;;;;;;;17.25;9.50;;;;;;;;;;10429227;28;20413;-83
2023/03/04 05:44:31;;;;;;;15.82;9.15;;;;;;;;;;10435977;28;20439;-83
2023/03/04 05:49:33;;;;;;;17.60;10.07;;;;;;;;;;10441169;28;20429;-83
2023/03/04 05:54:35;;;;;;;17.13;10.05;;;;;;;;;;10435370;28;20423;-82
2023/03/04 05:59:38;;;;;;;17.77;10.32;;;;;;;;;;10434820;28;20748;-83
2023/03/04 06:04:40;;;;;;;18.77;10.63;;;;;;;;;;10437226;28;20416;-83
2023/03/04 06:09:43;;;;;;;22.65;12.75;;;;;;;;;;10441683;28;20423;-82
2023/03/04 06:14:47;;;;;;;23.10;11.82;;;;;;;;;;10442744;28;20497;-83
2023/03/04 06:19:49;;;;;;;22.33;13.07;;;;;;;;;;10442413;28;20406;-83
2023/03/04 06:24:50;;;;;;;87.32;42.60;;;;;;;;;;10439939;28;20408;-83
2023/03/04 06:29:54;;;;;;;20.17;11.70;;;;;;;;;;10433193;28;20468;-83
2023/03/04 06:34:55;;;;;;;16.77;10.82;;;;;;;;;;10442830;28;20435;-83
2023/03/04 06:39:57;;;;;;;21.10;10.95;;;;;;;;;;10439580;28;20403;-82
2023/03/04 06:45:01;;;;;;;16.15;10.68;;;;;;;;;;10405042;23;20419;-83
2023/03/04 06:50:04;;;;;;;18.63;10.80;;;;;;;;;;10379806;28;20429;-83
2023/03/04 06:55:07;;;;;;;21.07;11.40;;;;;;;;;;10378833;28;20434;-83
2023/03/04 07:00:12;;;;;;;16.88;11.45;;;;;;;;;;10367223;28;20415;-82
2023/03/04 07:05:14;;;;;;;19.45;10.73;;;;;;;;;;10372586;28;20971;-82
2023/03/04 07:10:16;;;;;;;16.95;10.60;;;;;;;;;;10378610;28;20421;-82
2023/03/04 07:15:19;;;;;;;19.77;10.90;;;;;;;;;;10376161;28;20912;-82
2023/03/04 07:20:21;;;;;;;16.15;9.77;;;;;;;;;;10376738;28;20407;-82
2023/03/04 07:25:23;;;;;;;15.85;9.20;;;;;;;;;;10379569;28;20935;-82
2023/03/04 07:30:26;;;;;;;13.23;8.35;;;;;;;;;;10375690;28;20440;-82
2023/03/04 07:35:28;;;;;;;14.25;8.00;;;;;;;;;;10375610;28;20432;-82
2023/03/04 07:40:30;;;;;;;15.48;8.77;;;;;;;;;;10376260;28;20517;-82
2023/03/04 07:45:33;;;;;;;14.88;8.80;;;;;;;;;;10385849;28;20451;-82
2023/03/04 07:50:35;;;;;;;18.33;11.43;;;;;;;;;;10390550;28;20547;-82
2023/03/04 07:55:37;;;;;;;11.60;8.20;;;;;;;;;;10378594;28;20530;-81
2023/03/04 08:00:41;;;;;;;14.25;8.30;;;;;;;;;;10375709;28;20800;-83
2023/03/04 08:05:42;;;;;;;13.27;8.27;;;;;;;;;;10376304;28;20454;-81
2023/03/04 08:10:45;;;;;;;13.85;8.35;;;;;;;;;;10384802;28;21167;-82
2023/03/04 08:15:49;;;;;;;12.10;8.27;;;;;;;;;;10382628;28;20407;-83
2023/03/04 08:20:51;;;;;;;13.48;8.35;;;;;;;;;;10370904;28;20889;-83
2023/03/04 08:25:53;;;;;;;14.75;9.05;;;;;;;;;;10375410;28;20422;-83
2023/03/04 08:30:56;;;;;;;17.08;10.23;;;;;;;;;;10370659;28;20427;-83
2023/03/04 08:35:58;;;;;;;16.60;10.82;;;;;;;;;;10373595;28;20425;-83
2023/03/04 08:41:01;;;;;;;15.63;9.73;;;;;;;;;;10373479;28;20817;-83
2023/03/04 08:46:05;;;;;;;19.33;10.60;;;;;;;;;;10368827;28;20423;-83
2023/03/04 08:51:08;;;;;;;16.70;10.00;;;;;;;;;;10377208;28;20532;-83
2023/03/04 08:56:11;;;;;;;16.77;10.73;;;;;;;;;;10379117;28;20411;-84
2023/03/04 09:01:15;;;;;;;16.23;11.57;;;;;;;;;;10383028;28;20889;-84
2023/03/04 09:06:18;;;;;;;17.33;10.93;;;;;;;;;;10381186;28;20528;-84
2023/03/04 09:11:19;;;;;;;18.73;11.17;;;;;;;;;;10381623;28;20452;-84
2023/03/04 09:16:23;;;;;;;18.75;10.98;;;;;;;;;;10382623;28;20492;-84
2023/03/04 09:21:25;;;;;;;18.90;11.23;;;;;;;;;;10383865;28;20413;-84
2023/03/04 09:26:29;;;;;;;17.80;11.65;;;;;;;;;;10379557;28;20415;-84
2023/03/04 09:31:32;;;;;;;22.38;12.13;;;;;;;;;;10380732;28;20416;-84
2023/03/04 09:36:34;;;;;;;17.23;10.30;;;;;;;;;;10369517;28;20418;-83
2023/03/04 09:41:40;;;;;;;16.05;9.98;;;;;;;;;;10376260;28;20409;-84
2023/03/04 09:46:45;;;;;;;16.15;9.65;;;;;;;;;;10384860;28;20422;-83
2023/03/04 09:52:02;;;;;;;14.85;9.27;;;;;;;;;;10385563;28;20486;-84
2023/03/04 09:57:18;;;;;;;15.95;9.52;;;;;;;;;;10377584;28;20504;-84
2023/03/04 10:02:30;;;;;;;14.37;7.90;;;;;;;;;;10375395;28;20431;-83
2023/03/04 10:07:36;;;;;;;13.30;8.93;;;;;;;;;;10379422;28;20419;-84
2023/03/04 10:12:41;;;;;;;15.20;8.57;;;;;;;;;;10378760;28;20420;-84
2023/03/04 10:17:52;;;;;;;14.80;8.13;;;;;;;;;;10384347;28;20453;-83
2023/03/04 10:22:58;;;;;;;14.23;7.95;;;;;;;;;;10384392;28;20410;-84
2023/03/04 10:28:04;;;;;;;14.27;8.15;;;;;;;;;;10382031;28;20462;-84
2023/03/04 10:33:12;;;;;;;14.67;8.53;;;;;;;;;;10385808;28;20477;-83
2023/03/04 10:38:16;;;;;;;16.00;9.27;;;;;;;;;;10381589;28;20477;-83
2023/03/04 10:43:19;;;;;;;15.55;8.93;;;;;;;;;;10388923;28;20796;-84
2023/03/04 10:48:25;;;;;;;13.90;9.10;;;;;;;;;;10381925;28;20524;-84
2023/03/04 10:53:33;;;;;;;17.17;9.43;;;;;;;;;;10386087;28;20513;-84
2023/03/04 10:58:35;;;;;;;17.10;10.13;;;;;;;;;;10381813;28;20440;-84
2023/03/04 11:03:38;;;;;;;16.33;9.30;;;;;;;;;;10385383;28;21376;-83
2023/03/04 11:08:41;;;;;;;18.58;9.70;;;;;;;;;;10387979;28;20537;-84
2023/03/04 11:13:52;;;;;;;15.93;9.82;;;;;;;;;;10384649;28;20420;-84
2023/03/04 11:18:59;;;;;;;16.57;10.60;;;;;;;;;;10384630;28;20410;-83
2023/03/04 11:24:04;;;;;;;20.27;11.20;;;;;;;;;;10394492;28;20946;-84
2023/03/04 11:29:13;;;;;;;16.05;10.02;;;;;;;;;;10386930;28;20426;-84
2023/03/04 11:34:23;;;;;;;16.33;9.95;;;;;;;;;;10382191;28;20533;-83
2023/03/04 11:39:34;;;;;;;18.95;10.50;;;;;;;;;;10381215;28;20417;-83
2023/03/04 11:44:35;;;;;;;16.35;10.93;;;;;;;;;;10373051;28;20489;-83
2023/03/04 11:50:09;;;;;;;19.77;11.33;;;;;;;;;;10385475;28;20439;-83
2023/03/04 11:55:27;;;;;;;26.53;14.23;;;;;;;;;;10382015;28;20407;-82
2023/03/04 12:00:39;;;;;;;18.60;11.27;;;;;;;;;;10375474;28;20445;-83
2023/03/04 12:05:52;;;;;;;16.98;10.45;;;;;;;;;;10374824;28;20495;-83
2023/03/04 12:11:03;;;;;;;20.27;11.60;;;;;;;;;;10374110;28;20465;-84
2023/03/04 12:16:23;;;;;;;17.58;10.75;;;;;;;;;;10375319;28;20422;-84
2023/03/04 12:21:44;;;;;;;15.35;9.25;;;;;;;;;;10374767;28;20419;-84
2023/03/04 12:26:50;;;;;;;17.15;10.48;;;;;;;;;;10374174;28;20421;-83
2023/03/04 12:32:01;;;;;;;17.27;10.20;;;;;;;;;;10363006;28;20481;-82
2023/03/04 12:37:16;;;;;;;17.80;10.87;;;;;;;;;;10360331;28;20440;-83
2023/03/04 12:42:29;;;;;;;14.95;9.43;;;;;;;;;;10366291;28;20473;-84
2023/03/04 12:47:45;;;;;;;17.52;10.30;;;;;;;;;;10355039;28;20459;-84
2023/03/04 12:52:57;;;;;;;15.43;10.25;;;;;;;;;;10356698;28;20506;-83
2023/03/04 12:57:59;;;;;;;19.47;10.70;;;;;;;;;;10357538;28;20524;-83
2023/03/04 13:03:13;;;;;;;15.43;9.83;;;;;;;;;;10354833;28;20556;-83
2023/03/04 13:08:26;;;;;;;16.38;9.20;;;;;;;;;;10368201;28;20425;-83
2023/03/04 13:13:40;;;;;;;20.42;10.52;;;;;;;;;;10369205;28;20830;-84
2023/03/04 13:18:43;;;;;;;17.33;9.93;;;;;;;;;;10369505;28;20782;-82
2023/03/04 13:23:47;;;;;;;14.90;9.37;;;;;;;;;;10370988;28;20844;-83
2023/03/04 13:28:53;;;;;;;15.97;10.23;;;;;;;;;;10367132;28;20431;-84
2023/03/04 13:34:01;;;;;;;13.33;8.70;;;;;;;;;;10371502;28;20780;-82
2023/03/04 13:39:24;;;;;;;19.50;10.40;;;;;;;;;;10352209;28;20862;-81
2023/03/04 13:45:01;;;;;;;14.95;10.25;;;;;;;;;;10361927;28;21157;-82
2023/03/04 13:50:34;;;;;;;16.50;9.77;;;;;;;;;;10369103;28;20790;-82
2023/03/04 13:55:41;;;;;;;14.23;9.50;;;;;;;;;;10280416;28;20411;-81
2023/03/04 14:00:49;;;;;;;14.82;9.63;;;;;;;;;;10369265;28;20469;-82
2023/03/04 14:06:15;;;;;;;16.70;10.35;;;;;;;;;;10373513;28;20491;-82
2023/03/04 14:11:26;;;;;;;17.45;10.15;;;;;;;;;;10352451;28;20490;-81
2023/03/04 14:16:29;;;;;;;18.55;10.48;;;;;;;;;;10361802;28;20417;-82
2023/03/04 14:21:31;;;;;;;18.13;10.77;;;;;;;;;;10365922;28;20426;-81
2023/03/04 14:26:34;;;;;;;20.13;10.57;;;;;;;;;;10365612;28;20429;-81
2023/03/04 14:31:37;;;;;;;16.10;10.13;;;;;;;;;;10363417;28;20428;-82
2023/03/04 14:36:39;;;;;;;16.02;10.13;;;;;;;;;;10366065;28;20907;-81
2023/03/04 14:41:43;;;;;;;16.80;11.03;;;;;;;;;;10364901;28;20445;-82
2023/03/04 14:46:49;;;;;;;19.30;11.95;;;;;;;;;;10370976;28;20411;-83
2023/03/04 14:51:52;;;;;;;20.17;12.45;;;;;;;;;;10379034;28;20423;-83
2023/03/04 14:56:56;;;;;;;17.10;10.82;;;;;;;;;;10378198;28;20439;-82
2023/03/04 15:02:29;;;;;;;19.00;12.30;;;;;;;;;;10374098;28;20500;-83
2023/03/04 15:07:34;;;;;;;20.52;11.85;;;;;;;;;;10371360;28;20424;-82
2023/03/04 15:12:37;;;;;;;19.70;12.00;;;;;;;;;;10376473;28;20407;-83
2023/03/04 15:17:43;;;;;;;21.05;12.85;;;;;;;;;;10383931;28;20406;-84
2023/03/04 15:22:59;;;;;;;21.98;13.45;;;;;;;;;;10357276;28;20439;-83
2023/03/04 15:28:03;;;;;;;23.00;12.98;;;;;;;;;;10369546;28;20532;-83
2023/03/04 15:33:06;;;;;;;20.92;12.80;;;;;;;;;;10372294;28;20405;-83
2023/03/04 15:38:12;;;;;;;19.30;13.13;;;;;;;;;;10393754;28;20403;-83
2023/03/04 15:43:17;;;;;;;22.80;13.60;;;;;;;;;;10388952;28;20829;-84
2023/03/04 15:48:19;;;;;;;21.77;14.03;;;;;;;;;;10389136;28;20454;-84
2023/03/04 15:53:27;;;;;;;21.30;13.63;;;;;;;;;;10382045;28;21045;-83
2023/03/04 15:58:32;;;;;;;22.33;13.82;;;;;;;;;;10381861;28;20445;-83
2023/03/04 16:03:34;;;;;;;24.20;14.27;;;;;;;;;;10380478;28;20963;-84
2023/03/04 16:08:36;;;;;;;26.27;15.60;;;;;;;;;;10389981;28;20423;-82
2023/03/04 16:13:39;;;;;;;32.60;19.23;;;;;;;;;;10394746;28;20879;-84
2023/03/04 16:18:42;;;;;;;38.80;22.70;;;;;;;;;;10391326;28;20784;-83
2023/03/04 16:23:47;;;;;;;45.88;24.83;;;;;;;;;;10391136;28;20805;-83
2023/03/04 16:28:50;;;;;;;54.90;29.70;;;;;;;;;;10387485;28;20506;-84
2023/03/04 16:33:52;;;;;;;59.07;31.87;;;;;;;;;;10393672;28;20964;-82
2023/03/04 16:38:55;;;;;;;53.60;28.70;;;;;;;;;;10394941;28;20911;-83
2023/03/04 16:44:00;;;;;;;45.80;25.47;;;;;;;;;;10380853;28;20967;-83
2023/03/04 16:49:02;;;;;;;43.90;25.02;;;;;;;;;;10365307;28;20462;-83
2023/03/04 16:54:04;;;;;;;46.88;27.27;;;;;;;;;;10364871;28;20513;-83
2023/03/04 16:59:07;;;;;;;49.42;27.77;;;;;;;;;;10366683;28;20881;-82
2023/03/04 17:04:09;;;;;;;51.73;30.30;;;;;;;;;;10364977;28;20415;-81
2023/03/04 17:09:11;;;;;;;55.57;32.37;;;;;;;;;;10361360;28;20421;-82
2023/03/04 17:14:14;;;;;;;53.33;29.77;;;;;;;;;;10362625;28;20413;-82
2023/03/04 17:19:16;;;;;;;39.55;23.73;;;;;;;;;;10368164;28;20536;-82
2023/03/04 17:24:18;;;;;;;37.43;22.40;;;;;;;;;;10369781;28;20956;-82
2023/03/04 17:29:21;;;;;;;38.13;23.05;;;;;;;;;;10368512;28;20519;-81
2023/03/04 17:34:24;;;;;;;41.65;23.85;;;;;;;;;;10366659;28;20817;-86
2023/03/04 17:39:26;;;;;;;38.67;24.10;;;;;;;;;;10378773;28;20667;-82
2023/03/04 17:44:29;;;;;;;41.40;24.35;;;;;;;;;;10386567;28;20422;-82
2023/03/04 17:49:32;;;;;;;40.25;24.80;;;;;;;;;;10392132;28;20445;-82
2023/03/04 17:54:35;;;;;;;45.43;25.13;;;;;;;;;;10390665;28;20407;-81
2023/03/04 17:59:39;;;;;;;42.58;26.00;;;;;;;;;;10383170;28;20903;-81
2023/03/04 18:04:41;;;;;;;45.80;28.75;;;;;;;;;;10388577;28;20417;-81
2023/03/04 18:09:43;;;;;;;44.15;28.52;;;;;;;;;;10387807;28;20781;-81
2023/03/04 18:14:46;;;;;;;50.78;29.60;;;;;;;;;;10391028;28;20411;-81
2023/03/04 18:19:48;;;;;;;51.17;29.85;;;;;;;;;;10384934;28;20401;-81
2023/03/04 18:24:50;;;;;;;49.42;29.83;;;;;;;;;;10383985;28;20409;-82
2023/03/04 18:29:55;;;;;;;48.78;29.00;;;;;;;;;;10383051;28;20789;-82
2023/03/04 18:34:56;;;;;;;56.58;30.25;;;;;;;;;;10387718;28;20461;-81
2023/03/04 18:39:58;;;;;;;53.55;30.77;;;;;;;;;;10392134;28;20410;-81
2023/03/04 18:45:02;;;;;;;53.37;31.73;;;;;;;;;;10385648;28;20510;-80
2023/03/04 18:50:04;;;;;;;53.42;32.72;;;;;;;;;;10384602;28;20516;-80
2023/03/04 18:55:07;;;;;;;63.05;34.83;;;;;;;;;;10385364;28;20445;-81
2023/03/04 19:00:11;;;;;;;57.72;36.47;;;;;;;;;;10388240;28;20494;-81
2023/03/04 19:05:16;;;;;;;57.72;35.20;;;;;;;;;;10391258;28;20965;-81
2023/03/04 19:10:19;;;;;;;61.88;35.70;;;;;;;;;;10380240;28;20783;-81
2023/03/04 19:15:23;;;;;;;61.33;37.33;;;;;;;;;;10383199;28;20415;-81
2023/03/04 19:20:24;;;;;;;69.22;40.83;;;;;;;;;;10385847;28;20403;-81
2023/03/04 19:25:26;;;;;;;74.10;42.13;;;;;;;;;;10388204;28;20506;-81
2023/03/04 19:30:30;;;;;;;71.25;40.28;;;;;;;;;;10390578;28;20436;-81
2023/03/04 19:35:32;;;;;;;68.20;40.20;;;;;;;;;;10382207;28;20425;-82
2023/03/04 19:40:34;;;;;;;69.28;40.78;;;;;;;;;;10379800;28;20427;-81
2023/03/04 19:45:37;;;;;;;65.72;38.22;;;;;;;;;;10394854;28;20411;-81
2023/03/04 19:50:39;;;;;;;66.27;39.63;;;;;;;;;;10397215;28;20909;-81
2023/03/04 19:55:40;;;;;;;64.18;38.53;;;;;;;;;;10391258;28;20411;-81
2023/03/04 20:00:44;;;;;;;70.40;41.03;;;;;;;;;;10389913;28;20408;-81
2023/03/04 20:05:46;;;;;;;63.33;38.05;;;;;;;;;;10390908;28;20399;-82
2023/03/04 20:10:48;;;;;;;66.95;39.25;;;;;;;;;;10392072;28;20438;-82
2023/03/04 20:15:51;;;;;;;66.03;39.90;;;;;;;;;;10396258;28;20838;-82
2023/03/04 20:20:56;;;;;;;65.68;39.08;;;;;;;;;;10394402;28;20421;-82
2023/03/04 20:25:58;;;;;;;63.17;38.55;;;;;;;;;;10383598;28;20409;-82
2023/03/04 20:31:18;;;;;;;63.97;37.78;;;;;;;;;;10385713;28;20787;-82
2023/03/04 20:36:22;;;;;;;61.37;38.40;;;;;;;;;;10389606;28;20401;-82
2023/03/04 20:41:25;;;;;;;62.78;38.67;;;;;;;;;;10386787;28;20458;-82
2023/03/04 20:46:32;;;;;;;66.45;39.00;;;;;;;;;;10393011;28;20504;-82
2023/03/04 20:51:34;;;;;;;62.17;38.38;;;;;;;;;;10387106;28;20437;-82
2023/03/04 20:56:37;;;;;;;62.93;39.23;;;;;;;;;;10387669;28;20419;-81
2023/03/04 21:01:43;;;;;;;64.10;39.75;;;;;;;;;;10392120;28;20431;-81
2023/03/04 21:06:46;;;;;;;71.80;44.13;;;;;;;;;;10390452;28;20839;-82
2023/03/04 21:11:50;;;;;;;67.72;41.55;;;;;;;;;;10390604;28;20498;-81
2023/03/04 21:16:55;;;;;;;74.93;44.73;;;;;;;;;;10387560;28;20415;-81
2023/03/04 21:21:58;;;;;;;78.88;47.13;;;;;;;;;;10389254;28;20844;-81
2023/03/04 21:27:01;;;;;;;75.50;45.92;;;;;;;;;;10387303;28;20498;-82
2023/03/04 21:32:07;;;;;;;83.25;50.97;;;;;;;;;;10393120;28;20431;-81
2023/03/04 21:37:09;;;;;;;87.57;52.53;;;;;;;;;;10390249;28;20439;-81
2023/03/04 21:42:11;;;;;;;80.60;50.33;;;;;;;;;;10383406;28;20879;-81
2023/03/04 21:47:14;;;;;;;78.47;47.63;;;;;;;;;;10384856;28;20416;-82
2023/03/04 21:52:17;;;;;;;82.17;48.30;;;;;;;;;;10389313;28;20513;-82
2023/03/04 21:57:19;;;;;;;79.53;48.97;;;;;;;;;;10388457;28;20452;-82
2023/03/04 22:02:24;;;;;;;89.30;49.03;;;;;;;;;;10384401;28;21058;-82
2023/03/04 22:07:25;;;;;;;78.25;47.33;;;;;;;;;;10386342;28;20397;-81
2023/03/04 22:12:27;;;;;;;74.72;45.55;;;;;;;;;;10386975;28;20514;-81
2023/03/04 22:17:31;;;;;;;73.63;44.70;;;;;;;;;;10387812;28;20413;-81
2023/03/04 22:22:32;;;;;;;68.80;43.27;;;;;;;;;;10391156;28;20506;-82
2023/03/04 22:27:34;;;;;;;71.95;43.63;;;;;;;;;;10383690;28;20425;-81
2023/03/04 22:32:37;;;;;;;67.68;40.67;;;;;;;;;;10384845;28;20796;-81
2023/03/04 22:37:39;;;;;;;65.80;41.38;;;;;;;;;;10390468;28;20413;-81
2023/03/04 22:42:42;;;;;;;67.13;40.40;;;;;;;;;;10388351;28;20403;-81
2023/03/04 22:47:49;;;;;;;63.38;39.58;;;;;;;;;;10389495;28;20464;-81
2023/03/04 22:52:51;;;;;;;65.07;39.00;;;;;;;;;;10386000;28;20428;-81
2023/03/04 22:57:52;;;;;;;68.97;40.08;;;;;;;;;;10387553;28;20489;-81
2023/03/04 23:02:56;;;;;;;63.67;39.47;;;;;;;;;;10390263;28;20414;-82
2023/03/04 23:07:58;;;;;;;63.10;38.28;;;;;;;;;;10392371;28;20476;-81
2023/03/04 23:13:00;;;;;;;62.30;38.80;;;;;;;;;;10388425;28;20430;-80
2023/03/04 23:18:03;;;;;;;65.05;38.95;;;;;;;;;;10386247;28;20404;-81
2023/03/04 23:23:05;;;;;;;61.88;36.40;;;;;;;;;;10385005;28;20510;-81
2023/03/04 23:28:07;;;;;;;65.00;36.65;;;;;;;;;;10372934;28;20444;-83
2023/03/04 23:33:10;;;;;;;62.57;35.80;;;;;;;;;;10384557;28;20529;-81
2023/03/04 23:38:12;;;;;;;59.17;35.50;;;;;;;;;;10370116;28;20436;-82
2023/03/04 23:43:14;;;;;;;61.65;34.33;;;;;;;;;;10367632;28;20443;-82
2023/03/04 23:48:17;;;;;;;65.80;35.38;;;;;;;;;;10372463;28;20498;-81
2023/03/04 23:53:19;;;;;;;56.95;34.60;;;;;;;;;;10381220;28;20456;-81
2023/03/04 23:58:21;;;;;;;57.55;33.92;;;;;;;;;;10379397;28;20411;-82
